createdAt,value
2018-06-17T00:00:13.971Z,21.30
2018-06-17T00:00:47.069Z,21.30
2018-06-17T00:01:20.135Z,21.30
2018-06-17T00:01:53.022Z,21.30
2018-06-17T00:02:26.054Z,21.20
2018-06-17T00:02:58.938Z,21.20
2018-06-17T00:03:31.920Z,21.20
2018-06-17T00:04:04.627Z,21.30
2018-06-17T00:04:37.279Z,21.20
2018-06-17T00:05:09.942Z,21.20
2018-06-17T00:05:42.719Z,21.20
2018-06-17T00:06:15.726Z,21.20
2018-06-17T00:06:48.540Z,21.30
2018-06-17T00:07:21.264Z,21.20
2018-06-17T00:07:56.229Z,21.20
2018-06-17T00:08:28.958Z,21.20
2018-06-17T00:09:01.615Z,21.20
2018-06-17T00:09:34.310Z,21.20
2018-06-17T00:10:07.007Z,21.30
2018-06-17T00:10:39.726Z,21.30
2018-06-17T00:11:45.466Z,21.20
2018-06-17T00:12:18.442Z,21.20
2018-06-17T00:12:51.311Z,21.20
2018-06-17T00:13:24.145Z,21.30
2018-06-17T00:13:56.970Z,21.30
2018-06-17T00:14:29.658Z,21.30
2018-06-17T00:15:02.327Z,21.30
2018-06-17T00:15:35.050Z,21.30
2018-06-17T00:16:07.734Z,21.20
2018-06-17T00:16:40.555Z,21.20
2018-06-17T00:17:13.231Z,21.20
2018-06-17T00:17:47.407Z,21.20
2018-06-17T00:18:20.063Z,21.20
2018-06-17T00:18:52.734Z,21.20
2018-06-17T00:19:25.527Z,21.20
2018-06-17T00:19:58.230Z,21.20
2018-06-17T00:20:30.917Z,21.20
2018-06-17T00:21:03.594Z,21.20
2018-06-17T00:21:36.287Z,21.10
2018-06-17T00:22:08.959Z,21.10
2018-06-17T00:22:41.618Z,21.10
2018-06-17T00:23:14.274Z,21.10
2018-06-17T00:23:46.934Z,21.10
2018-06-17T00:24:19.594Z,21.20
2018-06-17T00:24:52.262Z,21.20
2018-06-17T00:25:24.947Z,21.20
2018-06-17T00:26:30.330Z,21.10
2018-06-17T00:27:03.015Z,21.10
2018-06-17T00:27:35.703Z,21.10
2018-06-17T00:28:08.377Z,21.10
2018-06-17T00:28:41.034Z,21.10
2018-06-17T00:29:13.731Z,21.10
2018-06-17T00:29:46.379Z,21.10
2018-06-17T00:30:19.034Z,21.00
2018-06-17T00:30:51.694Z,21.00
2018-06-17T00:31:24.383Z,21.10
2018-06-17T00:31:57.063Z,21.10
2018-06-17T00:32:29.727Z,21.10
2018-06-17T00:33:02.419Z,21.10
2018-06-17T00:33:35.083Z,21.10
2018-06-17T00:34:07.755Z,21.10
2018-06-17T00:34:40.423Z,21.10
2018-06-17T00:35:13.087Z,21.10
2018-06-17T00:35:45.798Z,21.10
2018-06-17T00:36:18.478Z,21.10
2018-06-17T00:36:51.306Z,21.10
2018-06-17T00:37:23.994Z,21.10
2018-06-17T00:37:56.683Z,21.10
2018-06-17T00:38:29.362Z,21.10
2018-06-17T00:39:02.107Z,21.10
2018-06-17T00:39:34.786Z,21.10
2018-06-17T00:40:07.447Z,21.00
2018-06-17T00:40:40.139Z,21.00
2018-06-17T00:41:12.798Z,21.10
2018-06-17T00:41:45.459Z,21.00
2018-06-17T00:42:18.117Z,21.00
2018-06-17T00:42:50.891Z,21.00
2018-06-17T00:43:23.562Z,21.00
2018-06-17T00:43:56.246Z,21.00
2018-06-17T00:44:28.919Z,20.90
2018-06-17T00:45:01.611Z,20.90
2018-06-17T00:45:34.291Z,20.90
2018-06-17T00:46:06.939Z,20.90
2018-06-17T00:46:39.627Z,20.90
2018-06-17T00:47:12.304Z,20.90
2018-06-17T00:47:45.142Z,20.90
2018-06-17T00:48:17.794Z,21.00
2018-06-17T00:48:50.479Z,20.90
2018-06-17T00:49:23.186Z,21.00
2018-06-17T00:49:55.839Z,21.00
2018-06-17T00:50:28.506Z,20.90
2018-06-17T00:51:01.167Z,21.00
2018-06-17T00:51:33.842Z,21.00
2018-06-17T00:52:06.578Z,21.00
2018-06-17T00:52:39.243Z,21.10
2018-06-17T00:53:11.911Z,21.10
2018-06-17T00:53:44.562Z,21.10
2018-06-17T00:54:17.214Z,21.10
2018-06-17T00:54:49.914Z,21.10
2018-06-17T00:55:22.571Z,21.10
2018-06-17T00:55:55.246Z,21.10
2018-06-17T00:56:27.930Z,21.10
2018-06-17T00:57:12.171Z,21.10
2018-06-17T00:57:50.274Z,21.10
2018-06-17T00:58:55.527Z,21.10
2018-06-17T00:59:28.439Z,21.10
2018-06-17T01:00:01.128Z,21.10
2018-06-17T01:00:33.811Z,21.10
2018-06-17T01:01:39.127Z,21.10
2018-06-17T01:02:11.799Z,21.10
2018-06-17T01:02:44.970Z,21.10
2018-06-17T01:03:17.666Z,21.10
2018-06-17T01:03:50.350Z,21.10
2018-06-17T01:04:23.034Z,21.10
2018-06-17T01:04:55.699Z,21.10
2018-06-17T01:05:28.406Z,21.10
2018-06-17T01:06:01.091Z,21.10
2018-06-17T01:06:33.782Z,21.10
2018-06-17T01:07:06.451Z,21.10
2018-06-17T01:07:39.150Z,21.10
2018-06-17T01:08:11.819Z,21.10
2018-06-17T01:08:44.498Z,21.10
2018-06-17T01:09:17.162Z,21.10
2018-06-17T01:09:49.822Z,21.00
2018-06-17T01:10:22.515Z,21.00
2018-06-17T01:10:55.235Z,21.00
2018-06-17T01:11:27.893Z,21.10
2018-06-17T01:12:33.138Z,21.10
2018-06-17T01:13:05.819Z,21.10
2018-06-17T01:13:38.485Z,21.10
2018-06-17T01:14:11.154Z,21.00
2018-06-17T01:14:43.819Z,21.00
2018-06-17T01:15:16.506Z,21.10
2018-06-17T01:15:49.194Z,21.00
2018-06-17T01:16:21.898Z,21.10
2018-06-17T01:16:54.551Z,21.00
2018-06-17T01:17:27.234Z,21.00
2018-06-17T01:17:59.913Z,21.10
2018-06-17T01:18:32.581Z,21.10
2018-06-17T01:19:05.235Z,21.00
2018-06-17T01:19:37.935Z,21.00
2018-06-17T01:20:10.655Z,21.00
2018-06-17T01:20:43.394Z,21.00
2018-06-17T01:21:16.214Z,21.00
2018-06-17T01:21:48.918Z,20.90
2018-06-17T01:22:21.603Z,21.00
2018-06-17T01:22:54.258Z,21.00
2018-06-17T01:23:26.910Z,21.00
2018-06-17T01:23:59.582Z,21.00
2018-06-17T01:24:32.239Z,20.90
2018-06-17T01:25:04.911Z,21.00
2018-06-17T01:25:37.587Z,21.00
2018-06-17T01:26:10.239Z,20.90
2018-06-17T01:26:42.901Z,21.00
2018-06-17T01:27:15.595Z,20.90
2018-06-17T01:27:48.262Z,20.90
2018-06-17T01:28:20.902Z,20.90
2018-06-17T01:28:54.199Z,20.90
2018-06-17T01:29:27.374Z,20.90
2018-06-17T01:30:00.177Z,20.90
2018-06-17T01:30:32.911Z,20.90
2018-06-17T01:31:05.638Z,20.90
2018-06-17T01:31:38.319Z,20.90
2018-06-17T01:32:10.987Z,20.90
2018-06-17T01:32:43.674Z,20.90
2018-06-17T01:33:16.326Z,20.90
2018-06-17T01:33:48.975Z,20.80
2018-06-17T01:34:21.630Z,20.80
2018-06-17T01:34:54.314Z,20.80
2018-06-17T01:35:26.974Z,20.90
2018-06-17T01:35:59.634Z,20.80
2018-06-17T01:36:32.310Z,20.90
2018-06-17T01:37:05.306Z,20.90
2018-06-17T01:37:37.966Z,20.90
2018-06-17T01:38:10.646Z,20.90
2018-06-17T01:38:43.306Z,20.90
2018-06-17T01:39:15.990Z,20.90
2018-06-17T01:39:48.646Z,20.90
2018-06-17T01:40:21.294Z,20.90
2018-06-17T01:40:53.958Z,20.90
2018-06-17T01:41:26.622Z,20.90
2018-06-17T01:41:59.294Z,20.90
2018-06-17T01:42:31.958Z,20.90
2018-06-17T01:43:04.630Z,20.90
2018-06-17T01:43:37.298Z,20.90
2018-06-17T01:44:09.946Z,20.90
2018-06-17T01:44:42.597Z,20.90
2018-06-17T01:45:15.262Z,20.90
2018-06-17T01:45:47.942Z,20.90
2018-06-17T01:46:20.590Z,20.90
2018-06-17T01:46:53.270Z,20.90
2018-06-17T01:47:25.962Z,20.80
2018-06-17T01:47:58.617Z,20.90
2018-06-17T01:48:31.293Z,20.80
2018-06-17T01:49:03.981Z,20.80
2018-06-17T01:49:36.666Z,20.80
2018-06-17T01:50:09.322Z,20.80
2018-06-17T01:50:42.016Z,20.80
2018-06-17T01:51:14.686Z,20.80
2018-06-17T01:51:47.370Z,20.80
2018-06-17T01:52:20.019Z,20.80
2018-06-17T01:52:52.682Z,20.80
2018-06-17T01:53:25.330Z,20.80
2018-06-17T01:53:58.023Z,20.80
2018-06-17T01:54:30.721Z,20.80
2018-06-17T01:55:03.394Z,20.70
2018-06-17T01:55:36.055Z,20.70
2018-06-17T01:56:08.706Z,20.70
2018-06-17T01:56:41.358Z,20.70
2018-06-17T01:57:14.026Z,20.60
2018-06-17T01:57:46.667Z,20.60
2018-06-17T01:58:19.390Z,20.60
2018-06-17T01:58:52.030Z,20.60
2018-06-17T01:59:24.683Z,20.60
2018-06-17T01:59:57.374Z,20.70
2018-06-17T02:00:30.032Z,20.60
2018-06-17T02:01:02.702Z,20.70
2018-06-17T02:01:35.392Z,20.70
2018-06-17T02:02:08.055Z,20.70
2018-06-17T02:02:40.722Z,20.70
2018-06-17T02:03:19.008Z,20.60
2018-06-17T02:03:57.255Z,20.70
2018-06-17T02:04:35.574Z,20.70
2018-06-17T02:05:13.874Z,20.70
2018-06-17T02:05:52.071Z,20.70
2018-06-17T02:06:30.365Z,20.70
2018-06-17T02:07:08.662Z,20.70
2018-06-17T02:07:46.810Z,20.70
2018-06-17T02:08:25.006Z,20.60
2018-06-17T02:09:03.206Z,20.60
2018-06-17T02:09:41.583Z,20.60
2018-06-17T02:10:19.902Z,20.60
2018-06-17T02:10:58.330Z,20.60
2018-06-17T02:11:38.266Z,20.50
2018-06-17T02:12:16.650Z,20.50
2018-06-17T02:12:49.382Z,20.50
2018-06-17T02:13:22.063Z,20.50
2018-06-17T02:13:59.282Z,20.50
2018-06-17T02:14:37.585Z,20.50
2018-06-17T02:15:10.255Z,20.50
2018-06-17T02:15:42.960Z,20.50
2018-06-17T02:16:15.606Z,20.50
2018-06-17T02:16:48.295Z,20.50
2018-06-17T02:17:22.149Z,20.50
2018-06-17T02:17:54.811Z,20.50
2018-06-17T02:18:27.491Z,20.50
2018-06-17T02:19:00.146Z,20.50
2018-06-17T02:19:32.805Z,20.60
2018-06-17T02:20:05.482Z,20.60
2018-06-17T02:20:38.274Z,20.60
2018-06-17T02:21:10.962Z,20.60
2018-06-17T02:21:43.626Z,20.60
2018-06-17T02:22:16.322Z,20.60
2018-06-17T02:22:48.998Z,20.70
2018-06-17T02:23:21.659Z,20.70
2018-06-17T02:23:54.315Z,20.80
2018-06-17T02:24:26.969Z,20.70
2018-06-17T02:24:59.643Z,20.70
2018-06-17T02:25:32.319Z,20.70
2018-06-17T02:26:04.991Z,20.70
2018-06-17T02:26:37.677Z,20.70
2018-06-17T02:27:10.333Z,20.70
2018-06-17T02:27:42.986Z,20.70
2018-06-17T02:28:15.635Z,20.70
2018-06-17T02:28:48.303Z,20.70
2018-06-17T02:29:20.951Z,20.70
2018-06-17T02:29:53.641Z,20.70
2018-06-17T02:30:26.399Z,20.70
2018-06-17T02:30:59.050Z,20.70
2018-06-17T02:31:32.021Z,20.70
2018-06-17T02:32:04.730Z,20.70
2018-06-17T02:32:37.390Z,20.70
2018-06-17T02:33:10.054Z,20.70
2018-06-17T02:33:42.734Z,20.70
2018-06-17T02:34:15.392Z,20.70
2018-06-17T02:34:48.061Z,20.70
2018-06-17T02:35:20.742Z,20.70
2018-06-17T02:35:53.395Z,20.70
2018-06-17T02:36:26.090Z,20.70
2018-06-17T02:36:59.047Z,20.60
2018-06-17T02:37:31.842Z,20.60
2018-06-17T02:38:04.510Z,20.60
2018-06-17T02:38:37.182Z,20.70
2018-06-17T02:39:10.131Z,20.60
2018-06-17T02:39:42.830Z,20.60
2018-06-17T02:40:15.526Z,20.70
2018-06-17T02:40:48.180Z,20.60
2018-06-17T02:41:20.834Z,20.60
2018-06-17T02:41:53.491Z,20.60
2018-06-17T02:42:26.167Z,20.60
2018-06-17T02:42:58.863Z,20.60
2018-06-17T02:43:31.511Z,20.50
2018-06-17T02:44:04.211Z,20.50
2018-06-17T02:44:37.146Z,20.50
2018-06-17T02:45:15.459Z,20.50
2018-06-17T02:45:53.755Z,20.50
2018-06-17T02:46:32.159Z,20.40
2018-06-17T02:47:10.599Z,20.50
2018-06-17T02:47:48.778Z,20.40
2018-06-17T02:48:27.054Z,20.40
2018-06-17T02:49:05.367Z,20.30
2018-06-17T02:49:40.466Z,20.30
2018-06-17T02:50:57.263Z,20.20
2018-06-17T02:51:35.538Z,20.20
2018-06-17T02:52:14.135Z,20.10
2018-06-17T02:52:52.378Z,20.10
2018-06-17T02:53:30.810Z,20.10
2018-06-17T02:54:09.054Z,20.00
2018-06-17T02:54:43.831Z,20.00
2018-06-17T02:55:16.499Z,20.00
2018-06-17T02:55:49.171Z,19.90
2018-06-17T02:56:21.842Z,19.90
2018-06-17T02:56:54.496Z,19.90
2018-06-17T02:57:27.191Z,19.90
2018-06-17T02:57:59.870Z,19.80
2018-06-17T02:58:32.559Z,19.80
2018-06-17T02:59:05.218Z,19.70
2018-06-17T02:59:38.123Z,19.70
2018-06-17T03:00:10.791Z,19.70
2018-06-17T03:00:43.466Z,19.60
2018-06-17T03:01:16.134Z,19.60
2018-06-17T03:01:48.787Z,19.60
2018-06-17T03:02:21.490Z,19.60
2018-06-17T03:02:54.134Z,19.60
2018-06-17T03:03:26.831Z,19.60
2018-06-17T03:03:59.558Z,19.60
2018-06-17T03:04:32.179Z,19.50
2018-06-17T03:05:04.858Z,19.50
2018-06-17T03:05:37.519Z,19.50
2018-06-17T03:06:10.203Z,19.50
2018-06-17T03:06:42.894Z,19.50
2018-06-17T03:07:15.571Z,19.50
2018-06-17T03:07:48.240Z,19.50
2018-06-17T03:08:20.890Z,19.50
2018-06-17T03:08:53.543Z,19.40
2018-06-17T03:09:27.039Z,19.40
2018-06-17T03:09:59.706Z,19.40
2018-06-17T03:10:32.351Z,19.40
2018-06-17T03:11:05.038Z,19.40
2018-06-17T03:11:37.741Z,19.40
2018-06-17T03:12:10.414Z,19.30
2018-06-17T03:12:43.094Z,19.30
2018-06-17T03:13:15.745Z,19.30
2018-06-17T03:13:48.407Z,19.30
2018-06-17T03:14:21.258Z,19.20
2018-06-17T03:14:53.973Z,19.20
2018-06-17T03:15:26.691Z,19.20
2018-06-17T03:15:59.399Z,19.20
2018-06-17T03:16:32.088Z,19.10
2018-06-17T03:17:04.775Z,19.10
2018-06-17T03:17:37.425Z,19.10
2018-06-17T03:18:10.071Z,19.10
2018-06-17T03:18:42.762Z,19.10
2018-06-17T03:19:15.441Z,19.10
2018-06-17T03:19:48.099Z,19.10
2018-06-17T03:20:20.791Z,19.10
2018-06-17T03:20:53.675Z,19.10
2018-06-17T03:21:26.330Z,19.10
2018-06-17T03:21:58.991Z,19.00
2018-06-17T03:22:31.682Z,19.00
2018-06-17T03:23:04.470Z,19.10
2018-06-17T03:23:37.130Z,19.00
2018-06-17T03:24:09.795Z,19.00
2018-06-17T03:24:48.165Z,19.00
2018-06-17T03:25:26.397Z,19.00
2018-06-17T03:26:04.791Z,19.00
2018-06-17T03:26:43.043Z,19.00
2018-06-17T03:27:21.341Z,19.00
2018-06-17T03:27:59.834Z,19.00
2018-06-17T03:28:38.306Z,19.00
2018-06-17T03:29:16.603Z,19.10
2018-06-17T03:29:55.011Z,19.00
2018-06-17T03:30:33.255Z,19.10
2018-06-17T03:31:11.494Z,19.10
2018-06-17T03:31:49.794Z,19.10
2018-06-17T03:32:28.070Z,19.10
2018-06-17T03:33:06.391Z,19.10
2018-06-17T03:33:44.710Z,19.10
2018-06-17T03:34:17.363Z,19.10
2018-06-17T03:34:55.791Z,19.20
2018-06-17T03:35:34.130Z,19.20
2018-06-17T03:36:09.271Z,19.20
2018-06-17T03:36:41.958Z,19.20
2018-06-17T03:37:14.619Z,19.20
2018-06-17T03:37:47.263Z,19.20
2018-06-17T03:38:19.924Z,19.20
2018-06-17T03:38:52.566Z,19.20
2018-06-17T03:39:25.225Z,19.20
2018-06-17T03:39:57.887Z,19.20
2018-06-17T03:40:30.567Z,19.20
2018-06-17T03:41:03.284Z,19.20
2018-06-17T03:41:36.003Z,19.30
2018-06-17T03:42:08.650Z,19.30
2018-06-17T03:42:41.336Z,19.30
2018-06-17T03:43:14.257Z,19.20
2018-06-17T03:43:46.910Z,19.20
2018-06-17T03:44:19.583Z,19.20
2018-06-17T03:44:52.247Z,19.30
2018-06-17T03:45:24.902Z,19.30
2018-06-17T03:45:57.591Z,19.30
2018-06-17T03:46:30.278Z,19.30
2018-06-17T03:47:02.939Z,19.30
2018-06-17T03:47:35.615Z,19.30
2018-06-17T03:48:08.302Z,19.30
2018-06-17T03:48:40.958Z,19.40
2018-06-17T03:49:13.604Z,19.30
2018-06-17T03:49:46.257Z,19.30
2018-06-17T03:50:18.914Z,19.30
2018-06-17T03:50:51.562Z,19.30
2018-06-17T03:51:24.232Z,19.30
2018-06-17T03:51:56.924Z,19.30
2018-06-17T03:52:29.562Z,19.30
2018-06-17T03:53:02.208Z,19.30
2018-06-17T03:53:34.894Z,19.40
2018-06-17T03:54:07.566Z,19.40
2018-06-17T03:54:40.211Z,19.40
2018-06-17T03:55:12.862Z,19.40
2018-06-17T03:55:45.506Z,19.40
2018-06-17T03:56:18.171Z,19.40
2018-06-17T03:56:50.831Z,19.40
2018-06-17T03:57:23.541Z,19.40
2018-06-17T03:57:56.211Z,19.50
2018-06-17T03:58:28.874Z,19.50
2018-06-17T03:59:01.544Z,19.40
2018-06-17T03:59:34.203Z,19.50
2018-06-17T04:00:06.871Z,19.50
2018-06-17T04:00:39.550Z,19.50
2018-06-17T04:01:12.206Z,19.50
2018-06-17T04:01:44.879Z,19.50
2018-06-17T04:02:17.534Z,19.50
2018-06-17T04:02:50.230Z,19.50
2018-06-17T04:03:22.890Z,19.60
2018-06-17T04:03:55.625Z,19.50
2018-06-17T04:04:28.358Z,19.60
2018-06-17T04:05:06.755Z,19.60
2018-06-17T04:05:39.402Z,19.60
2018-06-17T04:06:12.059Z,19.60
2018-06-17T04:06:44.706Z,19.60
2018-06-17T04:07:17.371Z,19.60
2018-06-17T04:07:50.035Z,19.60
2018-06-17T04:08:22.725Z,19.60
2018-06-17T04:08:55.402Z,19.70
2018-06-17T04:09:28.059Z,19.70
2018-06-17T04:10:00.727Z,19.70
2018-06-17T04:10:33.391Z,19.70
2018-06-17T04:11:06.083Z,19.80
2018-06-17T04:11:38.754Z,19.80
2018-06-17T04:12:11.404Z,19.80
2018-06-17T04:12:44.079Z,19.80
2018-06-17T04:13:16.723Z,19.80
2018-06-17T04:13:49.410Z,19.80
2018-06-17T04:14:22.063Z,19.80
2018-06-17T04:14:54.763Z,19.80
2018-06-17T04:15:27.414Z,19.80
2018-06-17T04:16:00.111Z,19.80
2018-06-17T04:16:32.944Z,19.80
2018-06-17T04:17:10.226Z,19.80
2018-06-17T04:17:42.895Z,19.80
2018-06-17T04:18:15.542Z,19.90
2018-06-17T04:18:48.234Z,19.90
2018-06-17T04:19:20.923Z,19.90
2018-06-17T04:19:53.578Z,19.80
2018-06-17T04:20:26.246Z,19.80
2018-06-17T04:20:59.055Z,19.90
2018-06-17T04:21:31.734Z,19.90
2018-06-17T04:22:04.398Z,19.90
2018-06-17T04:22:37.142Z,19.90
2018-06-17T04:23:09.794Z,19.90
2018-06-17T04:23:42.458Z,19.90
2018-06-17T04:24:15.111Z,19.90
2018-06-17T04:24:47.823Z,19.90
2018-06-17T04:25:20.495Z,19.90
2018-06-17T04:25:53.167Z,19.90
2018-06-17T04:26:25.822Z,19.90
2018-06-17T04:26:58.493Z,20.00
2018-06-17T04:27:31.154Z,20.00
2018-06-17T04:28:03.870Z,20.00
2018-06-17T04:28:36.531Z,20.00
2018-06-17T04:29:09.198Z,20.00
2018-06-17T04:29:41.863Z,20.00
2018-06-17T04:30:14.539Z,20.00
2018-06-17T04:30:47.207Z,20.00
2018-06-17T04:31:19.859Z,20.00
2018-06-17T04:31:52.525Z,20.00
2018-06-17T04:32:25.218Z,20.10
2018-06-17T04:32:57.898Z,20.10
2018-06-17T04:33:30.558Z,20.10
2018-06-17T04:34:03.242Z,20.20
2018-06-17T04:34:35.886Z,20.20
2018-06-17T04:35:08.535Z,20.20
2018-06-17T04:35:41.238Z,20.20
2018-06-17T04:36:13.948Z,20.30
2018-06-17T04:36:46.599Z,20.30
2018-06-17T04:37:19.259Z,20.30
2018-06-17T04:37:51.925Z,20.30
2018-06-17T04:38:24.598Z,20.30
2018-06-17T04:38:57.241Z,20.20
2018-06-17T04:39:29.902Z,20.20
2018-06-17T04:40:02.626Z,20.20
2018-06-17T04:40:35.286Z,20.20
2018-06-17T04:41:07.986Z,20.20
2018-06-17T04:41:40.634Z,20.20
2018-06-17T04:42:13.290Z,20.20
2018-06-17T04:42:45.982Z,20.20
2018-06-17T04:43:18.651Z,20.20
2018-06-17T04:43:51.426Z,20.20
2018-06-17T04:44:24.128Z,20.20
2018-06-17T04:44:56.806Z,20.20
2018-06-17T04:45:29.474Z,20.20
2018-06-17T04:46:02.151Z,20.20
2018-06-17T04:46:34.827Z,20.20
2018-06-17T04:47:07.478Z,20.20
2018-06-17T04:47:40.146Z,20.30
2018-06-17T04:48:12.814Z,20.30
2018-06-17T04:48:45.507Z,20.30
2018-06-17T04:49:18.172Z,20.30
2018-06-17T04:49:50.835Z,20.30
2018-06-17T04:50:23.499Z,20.40
2018-06-17T04:50:56.782Z,20.40
2018-06-17T04:51:29.443Z,20.40
2018-06-17T04:52:02.123Z,20.50
2018-06-17T04:52:34.786Z,20.50
2018-06-17T04:53:07.430Z,20.60
2018-06-17T04:53:40.098Z,20.60
2018-06-17T04:54:12.768Z,20.60
2018-06-17T04:54:45.455Z,20.60
2018-06-17T04:55:18.112Z,20.70
2018-06-17T04:55:53.422Z,20.70
2018-06-17T04:56:26.159Z,20.70
2018-06-17T04:56:59.123Z,20.70
2018-06-17T04:57:31.803Z,20.80
2018-06-17T04:58:04.726Z,20.80
2018-06-17T04:58:37.386Z,20.90
2018-06-17T04:59:10.051Z,20.90
2018-06-17T04:59:42.706Z,20.90
2018-06-17T05:00:15.374Z,21.00
2018-06-17T05:00:48.034Z,21.10
2018-06-17T05:01:20.698Z,21.10
2018-06-17T05:01:53.354Z,21.10
2018-06-17T05:02:26.035Z,21.20
2018-06-17T05:02:58.731Z,21.20
2018-06-17T05:03:31.390Z,21.30
2018-06-17T05:04:04.056Z,21.30
2018-06-17T05:04:36.707Z,21.30
2018-06-17T05:05:09.378Z,21.40
2018-06-17T05:05:42.040Z,21.40
2018-06-17T05:06:14.698Z,21.40
2018-06-17T05:06:47.376Z,21.50
2018-06-17T05:07:20.027Z,21.60
2018-06-17T05:07:52.698Z,21.60
2018-06-17T05:08:25.402Z,21.70
2018-06-17T05:08:58.073Z,21.70
2018-06-17T05:09:30.737Z,21.80
2018-06-17T05:10:03.611Z,21.90
2018-06-17T05:10:36.262Z,21.90
2018-06-17T05:11:08.955Z,21.90
2018-06-17T05:11:41.631Z,22.00
2018-06-17T05:12:14.283Z,22.10
2018-06-17T05:12:46.966Z,22.10
2018-06-17T05:13:19.618Z,22.10
2018-06-17T05:13:52.310Z,22.10
2018-06-17T05:14:24.992Z,22.10
2018-06-17T05:14:57.642Z,22.20
2018-06-17T05:15:30.298Z,22.20
2018-06-17T05:16:02.977Z,22.30
2018-06-17T05:16:35.623Z,22.30
2018-06-17T05:17:08.406Z,22.40
2018-06-17T05:17:41.082Z,22.40
2018-06-17T05:19:18.919Z,22.50
2018-06-17T05:19:51.576Z,22.50
2018-06-17T05:20:24.244Z,22.60
2018-06-17T05:20:56.893Z,22.60
2018-06-17T05:21:29.579Z,22.70
2018-06-17T05:22:02.232Z,22.70
2018-06-17T05:22:34.886Z,22.70
2018-06-17T05:23:07.550Z,22.70
2018-06-17T05:23:40.202Z,22.80
2018-06-17T05:24:12.866Z,22.80
2018-06-17T05:24:45.550Z,22.80
2018-06-17T05:25:18.206Z,22.90
2018-06-17T05:25:50.870Z,22.90
2018-06-17T05:26:23.558Z,23.00
2018-06-17T05:26:56.452Z,23.00
2018-06-17T05:27:29.119Z,23.10
2018-06-17T05:28:01.819Z,23.10
2018-06-17T05:28:34.507Z,23.20
2018-06-17T05:29:07.190Z,23.30
2018-06-17T05:29:39.876Z,23.30
2018-06-17T05:30:12.571Z,23.30
2018-06-17T05:30:45.248Z,23.40
2018-06-17T05:31:17.922Z,23.40
2018-06-17T05:31:50.604Z,23.40
2018-06-17T05:32:23.267Z,23.50
2018-06-17T05:32:55.951Z,23.50
2018-06-17T05:33:28.611Z,23.50
2018-06-17T05:34:01.271Z,23.60
2018-06-17T05:34:33.930Z,23.60
2018-06-17T05:35:06.622Z,23.70
2018-06-17T05:35:39.322Z,23.70
2018-06-17T05:36:12.003Z,23.80
2018-06-17T05:36:44.682Z,23.80
2018-06-17T05:37:17.354Z,23.80
2018-06-17T05:37:50.182Z,23.90
2018-06-17T05:38:22.850Z,23.90
2018-06-17T05:38:55.518Z,23.90
2018-06-17T05:39:28.202Z,24.00
2018-06-17T05:40:00.867Z,24.00
2018-06-17T05:40:33.649Z,24.10
2018-06-17T05:41:06.270Z,24.10
2018-06-17T05:41:38.957Z,24.10
2018-06-17T05:42:11.611Z,24.10
2018-06-17T05:42:44.275Z,24.20
2018-06-17T05:43:16.934Z,24.20
2018-06-17T05:43:49.626Z,24.30
2018-06-17T05:44:22.310Z,24.30
2018-06-17T05:44:54.990Z,24.40
2018-06-17T05:45:27.663Z,24.40
2018-06-17T05:46:00.351Z,24.50
2018-06-17T05:46:33.078Z,24.60
2018-06-17T05:47:05.752Z,24.70
2018-06-17T05:47:38.460Z,24.70
2018-06-17T05:48:11.110Z,24.70
2018-06-17T05:48:43.782Z,24.80
2018-06-17T05:49:16.454Z,24.80
2018-06-17T05:49:49.118Z,24.90
2018-06-17T05:50:21.782Z,24.90
2018-06-17T05:50:54.827Z,24.90
2018-06-17T05:51:27.486Z,25.00
2018-06-17T05:52:00.172Z,25.00
2018-06-17T05:52:32.834Z,25.10
2018-06-17T05:53:05.515Z,25.10
2018-06-17T05:53:38.191Z,25.20
2018-06-17T05:54:10.870Z,25.20
2018-06-17T05:54:43.538Z,25.20
2018-06-17T05:55:16.199Z,25.30
2018-06-17T05:55:48.851Z,25.30
2018-06-17T05:56:21.614Z,25.40
2018-06-17T05:56:54.286Z,25.40
2018-06-17T05:57:26.970Z,25.50
2018-06-17T05:57:59.647Z,25.50
2018-06-17T05:58:32.318Z,25.60
2018-06-17T05:59:05.079Z,25.60
2018-06-17T05:59:37.739Z,25.60
2018-06-17T06:00:10.414Z,25.60
2018-06-17T06:00:43.112Z,25.70
2018-06-17T06:01:15.774Z,25.70
2018-06-17T06:01:48.450Z,25.80
2018-06-17T06:02:21.104Z,25.80
2018-06-17T06:02:53.812Z,25.90
2018-06-17T06:03:26.468Z,25.90
2018-06-17T06:03:59.212Z,25.80
2018-06-17T06:04:31.822Z,25.90
2018-06-17T06:05:05.051Z,25.90
2018-06-17T06:05:37.722Z,26.00
2018-06-17T06:06:10.379Z,26.00
2018-06-17T06:06:43.062Z,26.10
2018-06-17T06:07:15.735Z,26.20
2018-06-17T06:07:48.395Z,26.30
2018-06-17T06:08:21.113Z,26.40
2018-06-17T06:08:53.773Z,26.50
2018-06-17T06:09:26.446Z,26.50
2018-06-17T06:09:59.131Z,26.50
2018-06-17T06:10:31.878Z,26.50
2018-06-17T06:11:04.607Z,26.60
2018-06-17T06:11:37.295Z,26.60
2018-06-17T06:12:09.988Z,26.60
2018-06-17T06:12:42.874Z,26.70
2018-06-17T06:13:15.544Z,26.60
2018-06-17T06:13:48.251Z,26.70
2018-06-17T06:14:20.929Z,26.80
2018-06-17T06:14:53.590Z,26.80
2018-06-17T06:15:26.278Z,26.80
2018-06-17T06:15:58.967Z,26.80
2018-06-17T06:16:31.646Z,26.80
2018-06-17T06:17:04.322Z,26.80
2018-06-17T06:17:36.990Z,26.80
2018-06-17T06:18:09.657Z,26.70
2018-06-17T06:18:42.315Z,26.70
2018-06-17T06:19:15.010Z,26.70
2018-06-17T06:19:47.671Z,26.70
2018-06-17T06:20:20.342Z,26.70
2018-06-17T06:20:53.171Z,26.60
2018-06-17T06:21:25.882Z,26.60
2018-06-17T06:21:58.562Z,26.60
2018-06-17T06:22:31.222Z,26.60
2018-06-17T06:23:03.885Z,26.50
2018-06-17T06:23:36.554Z,26.60
2018-06-17T06:24:09.231Z,26.60
2018-06-17T06:24:41.956Z,26.70
2018-06-17T06:25:14.618Z,26.80
2018-06-17T06:25:47.294Z,26.80
2018-06-17T06:26:19.958Z,26.80
2018-06-17T06:26:52.618Z,26.90
2018-06-17T06:27:25.282Z,27.00
2018-06-17T06:27:57.950Z,27.10
2018-06-17T06:28:30.615Z,27.20
2018-06-17T06:29:03.285Z,27.20
2018-06-17T06:29:35.950Z,27.30
2018-06-17T06:30:08.883Z,27.40
2018-06-17T06:30:41.574Z,27.50
2018-06-17T06:31:14.511Z,27.50
2018-06-17T06:31:47.190Z,27.60
2018-06-17T06:32:19.863Z,27.60
2018-06-17T06:32:52.538Z,27.60
2018-06-17T06:33:25.227Z,27.60
2018-06-17T06:33:57.922Z,27.60
2018-06-17T06:34:30.586Z,27.70
2018-06-17T06:35:03.326Z,27.70
2018-06-17T06:35:36.015Z,27.80
2018-06-17T06:36:41.294Z,27.80
2018-06-17T06:37:13.981Z,27.80
2018-06-17T06:37:46.678Z,27.80
2018-06-17T06:38:19.651Z,28.00
2018-06-17T06:38:52.331Z,28.10
2018-06-17T06:39:25.097Z,28.10
2018-06-17T06:39:57.776Z,28.20
2018-06-17T06:40:30.459Z,28.20
2018-06-17T06:41:03.171Z,28.20
2018-06-17T06:41:35.858Z,28.30
2018-06-17T06:42:08.534Z,28.20
2018-06-17T06:42:41.228Z,28.10
2018-06-17T06:43:13.899Z,28.10
2018-06-17T06:43:46.587Z,28.10
2018-06-17T06:44:19.267Z,28.10
2018-06-17T06:44:51.931Z,28.20
2018-06-17T06:45:24.578Z,28.30
2018-06-17T06:46:29.851Z,28.30
2018-06-17T06:47:02.531Z,28.40
2018-06-17T06:47:35.178Z,28.40
2018-06-17T06:48:07.870Z,28.40
2018-06-17T06:48:40.533Z,28.40
2018-06-17T06:49:13.202Z,28.40
2018-06-17T06:49:45.846Z,28.40
2018-06-17T06:50:18.508Z,28.50
2018-06-17T06:50:51.260Z,28.40
2018-06-17T06:51:23.870Z,28.30
2018-06-17T06:51:56.587Z,28.40
2018-06-17T06:52:29.262Z,28.50
2018-06-17T06:53:01.932Z,28.60
2018-06-17T06:53:34.615Z,28.60
2018-06-17T06:54:07.262Z,28.70
2018-06-17T06:54:39.943Z,28.70
2018-06-17T06:55:12.754Z,28.70
2018-06-17T06:55:45.434Z,28.70
2018-06-17T06:56:18.114Z,28.70
2018-06-17T06:56:50.814Z,28.70
2018-06-17T06:57:23.532Z,28.80
2018-06-17T06:57:56.755Z,28.80
2018-06-17T06:58:29.430Z,28.80
2018-06-17T06:59:02.094Z,28.70
2018-06-17T06:59:34.810Z,28.70
2018-06-17T07:00:07.475Z,28.70
2018-06-17T07:00:40.182Z,28.70
